createdAt,value
2017-12-14T00:01:32.660Z,1.48
2017-12-14T00:04:09.066Z,1.27
2017-12-14T00:06:42.695Z,1.35
2017-12-14T00:09:16.526Z,1.37
2017-12-14T00:11:50.421Z,1.33
2017-12-14T00:14:28.195Z,1.62
2017-12-14T00:17:01.852Z,1.20
2017-12-14T00:19:35.563Z,1.12
2017-12-14T00:22:10.429Z,1.42
2017-12-14T00:24:44.506Z,1.50
2017-12-14T00:27:18.107Z,0.90
2017-12-14T00:29:51.853Z,1.55
2017-12-14T00:32:25.665Z,0.95
2017-12-14T00:34:59.364Z,0.73
2017-12-14T00:37:33.598Z,1.25
2017-12-14T00:40:07.308Z,1.50
2017-12-14T00:42:41.230Z,1.08
2017-12-14T00:45:15.130Z,1.00
2017-12-14T00:47:49.609Z,1.33
2017-12-14T00:50:25.339Z,1.70
2017-12-14T00:52:59.367Z,1.90
2017-12-14T00:55:33.128Z,1.15
2017-12-14T00:58:06.913Z,1.90
2017-12-14T01:00:41.655Z,1.75
2017-12-14T01:03:15.334Z,1.60
2017-12-14T01:05:49.163Z,1.90
2017-12-14T01:08:22.829Z,2.10
2017-12-14T01:10:56.836Z,2.22
2017-12-14T01:13:30.544Z,2.00
2017-12-14T01:16:04.405Z,2.60
2017-12-14T01:18:39.015Z,2.70
2017-12-14T01:21:12.728Z,2.85
2017-12-14T01:23:46.423Z,4.15
2017-12-14T01:26:20.212Z,3.53
2017-12-14T01:28:53.945Z,2.70
2017-12-14T01:31:28.573Z,3.33
2017-12-14T01:34:02.230Z,5.47
2017-12-14T01:36:36.289Z,6.57
2017-12-14T01:39:10.086Z,2.03
2017-12-14T01:41:43.895Z,3.17
2017-12-14T01:44:17.534Z,3.50
2017-12-14T01:46:51.356Z,6.10
2017-12-14T01:49:26.076Z,3.47
2017-12-14T01:52:00.835Z,3.33
2017-12-14T01:54:36.456Z,3.25
2017-12-14T01:57:10.198Z,2.80
2017-12-14T01:59:43.932Z,4.10
2017-12-14T02:02:17.641Z,5.72
2017-12-14T02:04:51.420Z,8.20
2017-12-14T02:07:25.200Z,4.70
2017-12-14T02:09:59.088Z,5.55
2017-12-14T02:12:32.869Z,4.55
2017-12-14T02:15:07.516Z,7.12
2017-12-14T02:17:41.302Z,5.80
2017-12-14T02:20:15.352Z,5.03
2017-12-14T02:22:49.076Z,4.00
2017-12-14T02:25:23.625Z,5.93
2017-12-14T02:27:57.322Z,6.80
2017-12-14T02:30:31.007Z,6.75
2017-12-14T02:33:04.813Z,3.75
2017-12-14T02:35:38.569Z,3.92
2017-12-14T02:38:15.720Z,11.05
2017-12-14T02:40:50.243Z,6.65
2017-12-14T02:43:24.746Z,2.08
2017-12-14T02:45:58.565Z,7.12
2017-12-14T02:48:32.412Z,5.62
2017-12-14T02:51:06.399Z,9.38
2017-12-14T02:53:40.217Z,5.00
2017-12-14T02:56:13.990Z,7.70
2017-12-14T02:58:48.373Z,9.15
2017-12-14T03:01:22.892Z,5.75
2017-12-14T03:03:56.890Z,5.82
2017-12-14T03:06:30.433Z,4.32
2017-12-14T03:09:05.203Z,4.68
2017-12-14T03:11:39.316Z,12.65
2017-12-14T03:14:13.040Z,4.65
2017-12-14T03:16:46.752Z,6.25
2017-12-14T03:19:22.065Z,6.18
2017-12-14T03:21:55.772Z,8.32
2017-12-14T03:24:29.537Z,7.35
2017-12-14T03:27:03.306Z,4.90
2017-12-14T03:29:37.125Z,8.00
2017-12-14T03:32:10.869Z,4.78
2017-12-14T03:34:45.598Z,5.90
2017-12-14T03:37:19.190Z,5.65
2017-12-14T03:39:53.732Z,9.25
2017-12-14T03:42:29.413Z,5.75
2017-12-14T03:45:04.043Z,3.87
2017-12-14T03:47:37.793Z,11.95
2017-12-14T03:50:11.557Z,11.07
2017-12-14T03:52:45.472Z,8.02
2017-12-14T03:55:19.297Z,4.22
2017-12-14T03:57:53.094Z,10.73
2017-12-14T04:00:26.868Z,4.25
2017-12-14T04:03:00.623Z,4.78
2017-12-14T04:05:34.422Z,4.50
2017-12-14T04:08:08.146Z,6.72
2017-12-14T04:10:42.851Z,4.97
2017-12-14T04:13:17.513Z,5.22
2017-12-14T04:15:51.977Z,4.95
2017-12-14T04:18:26.400Z,8.60
2017-12-14T04:21:01.099Z,4.05
2017-12-14T04:23:37.414Z,5.93
2017-12-14T04:26:11.759Z,7.95
2017-12-14T04:28:45.322Z,7.32
2017-12-14T04:31:19.837Z,5.80
2017-12-14T04:33:53.476Z,6.80
2017-12-14T04:36:27.409Z,11.27
2017-12-14T04:39:01.178Z,6.43
2017-12-14T04:41:36.258Z,7.87
2017-12-14T04:44:12.334Z,11.75
2017-12-14T04:46:46.372Z,14.45
2017-12-14T04:49:20.308Z,9.90
2017-12-14T04:51:55.642Z,9.57
2017-12-14T04:54:31.315Z,17.40
2017-12-14T04:57:05.851Z,10.85
2017-12-14T04:59:39.659Z,12.02
2017-12-14T05:02:13.465Z,12.40
2017-12-14T05:04:47.186Z,13.43
2017-12-14T05:07:21.053Z,8.82
2017-12-14T05:09:54.660Z,8.88
2017-12-14T05:12:28.528Z,9.13
2017-12-14T05:15:02.278Z,11.40
2017-12-14T05:17:36.148Z,10.82
2017-12-14T05:20:09.925Z,20.92
2017-12-14T05:22:44.509Z,11.52
2017-12-14T05:28:17.506Z,9.55
2017-12-14T05:30:52.246Z,6.25
2017-12-14T05:33:25.900Z,8.57
2017-12-14T05:36:00.439Z,8.80
2017-12-14T05:38:35.297Z,11.68
2017-12-14T05:41:08.999Z,9.45
2017-12-14T05:43:42.784Z,10.07
2017-12-14T05:46:17.284Z,12.93
2017-12-14T05:48:51.073Z,11.98
2017-12-14T05:51:24.784Z,7.35
2017-12-14T05:53:58.788Z,12.13
2017-12-14T05:56:34.018Z,12.32
2017-12-14T05:59:08.835Z,10.10
2017-12-14T06:01:43.105Z,11.75
2017-12-14T06:04:16.954Z,11.75
2017-12-14T06:06:50.991Z,8.82
2017-12-14T06:09:24.768Z,8.55
2017-12-14T06:11:58.553Z,12.85
2017-12-14T06:14:33.245Z,14.38
2017-12-14T06:17:07.671Z,13.10
2017-12-14T06:19:42.906Z,10.23
2017-12-14T06:22:18.264Z,15.50
2017-12-14T06:24:53.060Z,9.10
2017-12-14T06:27:27.961Z,9.73
2017-12-14T06:30:01.600Z,10.75
2017-12-14T06:32:35.195Z,8.55
2017-12-14T06:35:09.719Z,11.57
2017-12-14T06:37:45.113Z,11.10
2017-12-14T06:40:20.203Z,16.15
2017-12-14T06:42:53.927Z,9.32
2017-12-14T06:45:28.266Z,11.02
2017-12-14T06:48:02.155Z,11.02
2017-12-14T06:50:37.099Z,8.65
2017-12-14T06:53:10.912Z,17.12
2017-12-14T06:55:44.808Z,11.27
2017-12-14T06:58:19.892Z,9.20
2017-12-14T07:00:54.376Z,11.23
2017-12-14T07:03:28.900Z,7.00
2017-12-14T07:06:02.599Z,5.70
2017-12-14T07:08:37.065Z,8.82
2017-12-14T07:11:12.532Z,9.35
2017-12-14T07:13:46.291Z,6.43
2017-12-14T07:16:20.290Z,7.55
2017-12-14T07:18:53.869Z,6.95
2017-12-14T07:21:27.698Z,7.95
2017-12-14T07:24:01.801Z,3.65
2017-12-14T07:26:35.549Z,5.72
2017-12-14T07:29:09.343Z,5.55
2017-12-14T07:31:43.194Z,5.32
2017-12-14T07:34:17.542Z,2.72
2017-12-14T07:36:52.468Z,5.18
2017-12-14T07:39:27.987Z,2.85
2017-12-14T07:42:01.540Z,2.47
2017-12-14T07:44:36.203Z,2.87
2017-12-14T07:50:11.876Z,8.13
2017-12-14T07:52:45.697Z,3.20
2017-12-14T07:55:19.557Z,6.22
2017-12-14T07:57:53.404Z,6.10
2017-12-14T08:00:27.217Z,6.43
2017-12-14T08:03:01.737Z,6.75
2017-12-14T08:05:35.609Z,7.07
2017-12-14T08:08:10.036Z,6.95
2017-12-14T08:10:43.732Z,10.00
2017-12-14T08:13:21.480Z,11.00
2017-12-14T08:15:56.303Z,7.53
2017-12-14T08:18:31.357Z,5.45
2017-12-14T08:21:05.109Z,6.45
2017-12-14T08:23:39.265Z,2.87
2017-12-14T08:26:13.016Z,1.70
2017-12-14T08:28:48.356Z,1.85
2017-12-14T08:31:22.010Z,2.25
2017-12-14T08:33:56.210Z,1.85
2017-12-14T08:36:31.728Z,1.08
2017-12-14T08:39:05.332Z,3.12
2017-12-14T08:44:17.241Z,2.08
2017-12-14T08:46:52.525Z,2.78
2017-12-14T08:49:27.905Z,3.20
2017-12-14T08:52:01.468Z,3.62
2017-12-14T08:54:36.772Z,3.62
2017-12-14T08:57:10.588Z,4.37
2017-12-14T08:59:45.011Z,3.95
2017-12-14T09:02:20.475Z,4.05
2017-12-14T09:04:54.271Z,4.43
2017-12-14T09:07:33.336Z,4.53
2017-12-14T09:10:07.041Z,5.40
2017-12-14T09:12:40.926Z,5.45
2017-12-14T09:15:14.836Z,5.93
2017-12-14T09:17:48.649Z,6.68
2017-12-14T09:20:22.775Z,6.25
2017-12-14T09:22:56.634Z,6.55
2017-12-14T09:25:32.074Z,6.45
2017-12-14T09:28:06.598Z,7.12
2017-12-14T09:30:40.342Z,6.70
2017-12-14T09:33:14.236Z,5.75
2017-12-14T09:35:49.312Z,6.37
2017-12-14T09:38:24.166Z,6.53
2017-12-14T09:40:58.252Z,7.97
2017-12-14T09:43:32.116Z,6.78
2017-12-14T09:46:06.549Z,7.03
2017-12-14T09:48:40.729Z,5.55
2017-12-14T09:51:14.920Z,6.57
2017-12-14T09:53:49.700Z,5.95
2017-12-14T09:56:25.345Z,7.40
2017-12-14T09:58:59.845Z,7.43
2017-12-14T10:01:35.559Z,9.18
2017-12-14T10:04:10.200Z,7.87
2017-12-14T10:06:43.888Z,6.70
2017-12-14T10:09:18.716Z,8.32
2017-12-14T10:11:52.536Z,7.12
2017-12-14T10:14:26.378Z,6.85
2017-12-14T10:16:59.980Z,6.32
2017-12-14T10:19:33.917Z,8.05
2017-12-14T10:22:07.682Z,7.37
2017-12-14T10:24:41.427Z,9.88
2017-12-14T10:27:15.182Z,9.75
2017-12-14T10:29:48.989Z,7.82
2017-12-14T10:32:22.771Z,10.60
2017-12-14T10:34:56.505Z,7.32
2017-12-14T10:37:34.096Z,11.55
2017-12-14T10:40:08.567Z,9.57
2017-12-14T10:42:42.368Z,8.68
2017-12-14T10:45:16.969Z,9.20
2017-12-14T10:47:50.828Z,9.52
2017-12-14T10:50:25.259Z,9.18
2017-12-14T10:53:00.403Z,8.88
2017-12-14T10:55:34.826Z,7.15
2017-12-14T10:58:08.665Z,11.38
2017-12-14T11:00:48.788Z,6.90
2017-12-14T11:03:23.116Z,15.20
2017-12-14T11:05:56.699Z,6.03
2017-12-14T11:08:30.568Z,10.77
2017-12-14T11:11:04.566Z,7.05
2017-12-14T11:13:38.381Z,7.82
2017-12-14T11:16:12.186Z,8.15
2017-12-14T11:18:45.961Z,8.15
2017-12-14T11:21:21.317Z,8.52
2017-12-14T11:23:55.039Z,7.05
2017-12-14T11:26:29.150Z,5.28
2017-12-14T11:29:03.675Z,10.35
2017-12-14T11:31:37.443Z,8.50
2017-12-14T11:34:11.176Z,15.68
2017-12-14T11:36:44.968Z,10.10
2017-12-14T11:39:18.793Z,9.13
2017-12-14T11:41:52.571Z,10.02
2017-12-14T11:44:26.310Z,8.80
2017-12-14T11:47:00.881Z,11.40
2017-12-14T11:49:34.660Z,14.57
2017-12-14T11:52:08.414Z,8.13
2017-12-14T11:54:42.196Z,10.93
2017-12-14T11:57:15.906Z,8.52
2017-12-14T11:59:49.714Z,10.68
2017-12-14T12:02:23.387Z,22.73
2017-12-14T12:04:57.094Z,7.87
2017-12-14T12:07:33.611Z,8.65
2017-12-14T12:10:07.176Z,8.65
2017-12-14T12:12:41.161Z,6.93
2017-12-14T12:15:18.753Z,6.82
2017-12-14T12:17:54.875Z,7.78
2017-12-14T12:20:28.477Z,6.82
2017-12-14T12:23:02.983Z,5.68
2017-12-14T12:25:37.502Z,6.20
2017-12-14T12:28:12.041Z,6.70
2017-12-14T12:30:45.782Z,4.40
2017-12-14T12:33:19.548Z,6.03
2017-12-14T12:35:53.267Z,6.32
2017-12-14T12:38:28.153Z,3.05
2017-12-14T12:41:01.917Z,3.78
2017-12-14T12:43:35.727Z,3.65
2017-12-14T12:46:09.504Z,2.50
2017-12-14T12:48:43.305Z,2.87
2017-12-14T12:51:17.005Z,2.70
2017-12-14T12:53:51.748Z,2.20
2017-12-14T12:56:25.802Z,5.12
2017-12-14T12:58:59.654Z,4.82
2017-12-14T13:01:33.525Z,1.83
2017-12-14T13:04:08.064Z,2.03
2017-12-14T13:06:43.067Z,2.22
2017-12-14T13:09:16.855Z,4.00
2017-12-14T13:11:51.481Z,2.60
2017-12-14T13:14:26.471Z,2.40
2017-12-14T13:17:00.400Z,2.15
2017-12-14T13:19:34.344Z,2.28
2017-12-14T13:22:08.912Z,2.65
2017-12-14T13:24:43.716Z,1.92
2017-12-14T13:27:17.788Z,1.50
2017-12-14T13:29:52.997Z,1.90
2017-12-14T13:32:27.490Z,2.17
2017-12-14T13:35:04.726Z,2.53
2017-12-14T13:37:41.142Z,2.37
2017-12-14T13:40:15.009Z,3.60
2017-12-14T13:42:48.808Z,1.67
2017-12-14T13:45:23.995Z,1.55
2017-12-14T13:47:59.649Z,2.67
2017-12-14T13:50:35.666Z,2.95
2017-12-14T13:53:10.587Z,1.65
2017-12-14T13:55:46.852Z,1.73
2017-12-14T13:58:21.250Z,1.65
2017-12-14T14:00:55.867Z,3.55
2017-12-14T14:03:29.585Z,1.40
2017-12-14T14:06:03.350Z,1.73
2017-12-14T14:08:37.158Z,1.80
2017-12-14T14:11:12.573Z,1.67
2017-12-14T14:13:46.939Z,1.92
2017-12-14T14:16:20.506Z,2.58
2017-12-14T14:18:58.897Z,2.33
2017-12-14T14:21:33.572Z,2.65
2017-12-14T14:24:07.375Z,2.47
2017-12-14T14:26:41.041Z,3.25
2017-12-14T14:29:15.817Z,2.95
2017-12-14T14:31:49.417Z,3.05
2017-12-14T14:34:24.629Z,3.30
2017-12-14T14:36:58.292Z,3.33
2017-12-14T14:39:32.544Z,3.00
2017-12-14T14:42:07.529Z,5.90
2017-12-14T14:44:42.135Z,4.12
2017-12-14T14:47:15.753Z,5.03
2017-12-14T14:49:50.146Z,5.95
2017-12-14T14:52:26.606Z,4.05
2017-12-14T14:55:00.557Z,4.85
2017-12-14T14:57:34.775Z,3.30
2017-12-14T15:00:09.512Z,4.30
2017-12-14T15:02:43.132Z,4.40
2017-12-14T15:05:16.742Z,4.30
2017-12-14T15:07:54.505Z,2.90
2017-12-14T15:10:28.273Z,3.78
2017-12-14T15:13:02.067Z,5.47
2017-12-14T15:15:35.859Z,3.47
2017-12-14T15:18:10.396Z,3.12
2017-12-14T15:20:45.005Z,2.80
2017-12-14T15:23:19.167Z,3.40
2017-12-14T15:25:54.069Z,4.43
2017-12-14T15:28:28.576Z,4.32
2017-12-14T15:31:02.298Z,4.68
2017-12-14T15:33:36.589Z,4.28
2017-12-14T15:36:11.322Z,5.75
2017-12-14T15:38:48.013Z,7.87
2017-12-14T15:41:23.747Z,10.48
2017-12-14T15:43:57.992Z,12.35
2017-12-14T15:46:33.505Z,7.75
2017-12-14T15:49:08.471Z,9.70
2017-12-14T15:51:52.995Z,9.00
2017-12-14T15:54:29.275Z,8.77
2017-12-14T15:57:03.908Z,8.70
2017-12-14T15:59:39.227Z,9.68
2017-12-14T16:02:14.833Z,10.18
2017-12-14T16:04:50.535Z,10.75
2017-12-14T16:07:26.180Z,10.63
2017-12-14T16:09:59.962Z,9.90
2017-12-14T16:12:33.704Z,8.85
2017-12-14T16:15:08.196Z,8.20
2017-12-14T16:17:43.006Z,7.72
2017-12-14T16:20:16.604Z,7.10
2017-12-14T16:22:52.510Z,7.18
2017-12-14T16:25:26.252Z,6.82
2017-12-14T16:28:01.406Z,7.22
2017-12-14T16:30:35.146Z,7.68
2017-12-14T16:33:10.452Z,7.10
2017-12-14T16:35:44.285Z,6.62
2017-12-14T16:38:19.602Z,6.50
2017-12-14T16:40:54.216Z,8.48
2017-12-14T16:43:27.983Z,7.07
2017-12-14T16:46:02.945Z,6.80
2017-12-14T16:48:37.834Z,8.77
2017-12-14T16:51:11.734Z,6.45
2017-12-14T16:53:45.496Z,7.80
2017-12-14T16:56:19.858Z,7.35
2017-12-14T16:58:54.533Z,8.35
2017-12-14T17:01:29.265Z,7.57
2017-12-14T17:04:06.306Z,8.23
2017-12-14T17:06:39.948Z,9.90
2017-12-14T17:09:13.928Z,10.85
2017-12-14T17:11:47.634Z,10.27
2017-12-14T17:14:21.417Z,14.07
2017-12-14T17:16:55.243Z,12.95
2017-12-14T17:19:29.352Z,10.68
2017-12-14T17:22:04.026Z,11.50
2017-12-14T17:24:38.949Z,12.02
2017-12-14T17:27:13.806Z,12.95
2017-12-14T17:29:48.405Z,13.62
2017-12-14T17:32:24.785Z,12.10
2017-12-14T17:34:59.428Z,11.10
2017-12-14T17:37:34.248Z,11.95
2017-12-14T17:40:08.756Z,12.35
2017-12-14T17:42:42.543Z,10.85
2017-12-14T17:45:18.018Z,15.57
2017-12-14T17:47:51.837Z,12.25
2017-12-14T17:50:26.346Z,15.13
2017-12-14T17:53:00.248Z,21.52
2017-12-14T17:55:34.027Z,12.02
2017-12-14T17:58:07.834Z,14.10
2017-12-14T18:00:42.355Z,12.18
2017-12-14T18:03:16.040Z,15.75
2017-12-14T18:05:50.637Z,12.95
2017-12-14T18:08:25.053Z,12.77
2017-12-14T18:10:58.794Z,13.05
2017-12-14T18:13:32.912Z,17.87
2017-12-14T18:16:06.726Z,14.40
2017-12-14T18:18:40.539Z,15.10
2017-12-14T18:21:15.388Z,15.38
2017-12-14T18:23:49.840Z,18.37
2017-12-14T18:26:23.705Z,12.02
2017-12-14T18:28:57.486Z,10.30
2017-12-14T18:31:32.983Z,12.93
2017-12-14T18:34:07.391Z,15.35
2017-12-14T18:36:41.146Z,17.42
2017-12-14T18:39:15.001Z,10.60
2017-12-14T18:41:50.673Z,15.38
2017-12-14T18:44:24.296Z,17.10
2017-12-14T18:46:58.747Z,14.70
2017-12-14T18:49:33.346Z,12.15
2017-12-14T18:52:07.762Z,10.20
2017-12-14T18:54:41.634Z,10.73
2017-12-14T18:57:15.694Z,14.75
2017-12-14T18:59:50.187Z,13.25
2017-12-14T19:02:24.872Z,13.75
2017-12-14T19:04:59.396Z,9.30
2017-12-14T19:07:34.441Z,11.68
2017-12-14T19:10:08.986Z,9.88
2017-12-14T19:12:42.996Z,17.60
2017-12-14T19:15:17.433Z,14.85
2017-12-14T19:17:53.482Z,10.80
2017-12-14T19:20:27.892Z,15.80
2017-12-14T19:23:02.489Z,12.23
2017-12-14T19:25:36.185Z,11.25
2017-12-14T19:28:09.932Z,13.38
2017-12-14T19:30:43.671Z,10.98
2017-12-14T19:33:17.518Z,14.90
2017-12-14T19:35:51.218Z,13.30
2017-12-14T19:38:25.029Z,11.15
2017-12-14T19:40:58.820Z,16.62
2017-12-14T19:43:32.601Z,17.15
2017-12-14T19:46:06.461Z,20.02
2017-12-14T19:48:40.279Z,21.42
2017-12-14T19:51:14.133Z,17.52
2017-12-14T19:53:47.854Z,12.37
2017-12-14T19:56:21.810Z,15.13
2017-12-14T19:58:55.639Z,10.02
2017-12-14T20:01:29.437Z,14.05
2017-12-14T20:04:05.313Z,12.15
2017-12-14T20:06:41.462Z,16.58
2017-12-14T20:09:17.760Z,16.12
2017-12-14T20:11:52.374Z,9.50
2017-12-14T20:14:26.276Z,13.40
2017-12-14T20:16:59.873Z,10.73
2017-12-14T20:19:41.753Z,9.35
2017-12-14T20:22:15.524Z,13.73
2017-12-14T20:24:50.030Z,10.85
2017-12-14T20:27:24.384Z,15.52
2017-12-14T20:29:58.290Z,10.02
2017-12-14T20:32:32.429Z,13.95
2017-12-14T20:35:06.214Z,14.60
2017-12-14T20:37:40.942Z,13.40
2017-12-14T20:40:14.543Z,12.15
2017-12-14T20:42:48.264Z,11.50
2017-12-14T20:45:25.834Z,11.90
2017-12-14T20:47:59.458Z,12.75
2017-12-14T20:50:34.005Z,11.50
2017-12-14T20:53:08.456Z,14.50
2017-12-14T20:55:43.099Z,15.88
2017-12-14T20:58:18.656Z,16.90
2017-12-14T21:00:54.635Z,11.35
2017-12-14T21:03:29.772Z,13.15
2017-12-14T21:06:03.858Z,14.65
2017-12-14T21:08:38.985Z,12.82
2017-12-14T21:11:13.849Z,15.25
2017-12-14T21:13:47.614Z,9.85
2017-12-14T21:16:22.203Z,13.62
2017-12-14T21:18:55.891Z,9.95
2017-12-14T21:21:35.112Z,7.93
2017-12-14T21:26:54.230Z,7.60
2017-12-14T21:32:08.076Z,10.18
2017-12-14T21:34:42.013Z,9.10
2017-12-14T21:37:22.793Z,8.80
2017-12-14T21:39:58.487Z,9.02
2017-12-14T21:45:13.111Z,8.10
2017-12-14T21:47:48.274Z,8.48
2017-12-14T21:50:24.844Z,6.03
2017-12-14T21:52:58.809Z,10.95
2017-12-14T21:55:32.968Z,6.70
2017-12-14T21:58:08.296Z,5.50
2017-12-14T22:00:42.937Z,9.73
2017-12-14T22:03:17.199Z,8.32
2017-12-14T22:05:52.465Z,6.03
2017-12-14T22:08:26.693Z,4.85
2017-12-14T22:11:01.113Z,7.40
2017-12-14T22:13:39.942Z,10.80
2017-12-14T22:16:15.401Z,9.98
2017-12-14T22:18:53.590Z,6.75
2017-12-14T22:21:28.038Z,6.35
2017-12-14T22:29:19.446Z,12.88
2017-12-14T22:31:54.054Z,6.72
2017-12-14T22:34:29.861Z,4.87
2017-12-14T22:37:04.419Z,4.50
2017-12-14T22:39:39.264Z,5.15
2017-12-14T22:42:13.380Z,6.50
2017-12-14T22:44:47.310Z,11.38
2017-12-14T22:47:21.736Z,5.45
2017-12-14T22:49:56.701Z,9.80
2017-12-14T22:52:31.736Z,5.47
2017-12-14T22:55:05.867Z,10.05
2017-12-14T22:57:39.428Z,5.50
2017-12-14T23:00:14.072Z,6.93
2017-12-14T23:02:50.570Z,6.28
2017-12-14T23:05:24.679Z,5.62
2017-12-14T23:07:59.405Z,5.10
2017-12-14T23:10:33.272Z,8.32
2017-12-14T23:13:07.072Z,8.40
2017-12-14T23:15:41.495Z,5.32
2017-12-14T23:18:16.240Z,3.65
2017-12-14T23:20:50.645Z,4.03
2017-12-14T23:23:25.362Z,3.95
2017-12-14T23:28:46.783Z,4.40
2017-12-14T23:31:22.297Z,3.65
2017-12-14T23:33:57.509Z,4.25
2017-12-14T23:36:31.756Z,4.55
2017-12-14T23:39:05.465Z,3.15
2017-12-14T23:41:40.027Z,6.12
2017-12-14T23:44:15.897Z,3.37
2017-12-14T23:46:54.232Z,3.00
2017-12-14T23:49:28.652Z,4.62
2017-12-14T23:54:41.924Z,5.47
2017-12-14T23:57:18.546Z,5.53
2017-12-14T23:59:57.969Z,3.40
